Time;durP1;ratioP1;P1;durP2;ratioP2;P2;SDS_P1;SDS_P2;PMS_P1;PMS_P2;Temp;Humidity;BMP_temperature;BMP_pressure;BME280_temperature;BME280_humidity;BME280_pressure;Samples;Min_cycle;Max_cycle;Signal;HPM_P1;HPM_P2
2022/04/17 00:00:10;;;;;;;345.80;316.02;;;;;;;18.73;31.26;94722.75;5045272;28;20040;-69
2022/04/17 00:02:55;;;;;;;339.52;310.50;;;;;;;18.72;31.29;94716.59;5043576;28;20516;-69
2022/04/17 00:05:21;;;;;;;352.73;322.73;;;;;;;18.73;31.11;94714.63;5043752;28;20040;-69
2022/04/17 00:07:47;;;;;;;351.45;321.55;;;;;;;18.73;31.23;94706.50;5026863;28;20041;-69
2022/04/17 00:10:13;;;;;;;345.67;316.75;;;;;;;18.73;31.30;94707.25;5047885;28;20072;-69
2022/04/17 00:12:40;;;;;;;332.45;304.58;;;;;;;18.71;31.26;94704.25;5043215;28;20040;-69
2022/04/17 00:15:10;;;;;;;343.58;314.38;;;;;;;18.72;31.24;94700.34;5040832;28;20052;-69
2022/04/17 00:17:41;;;;;;;344.23;315.13;;;;;;;18.71;31.31;94695.34;5044336;28;20052;-69
2022/04/17 00:20:12;;;;;;;356.60;326.55;;;;;;;18.72;31.11;94692.19;5040418;28;20117;-69
2022/04/17 00:22:37;;;;;;;347.10;317.67;;;;;;;18.73;31.19;94692.97;5040425;28;20048;-69
2022/04/17 00:25:03;;;;;;;341.92;312.95;;;;;;;18.72;31.19;94691.44;5041228;28;20063;-69
2022/04/17 00:27:29;;;;;;;347.25;317.92;;;;;;;18.70;31.27;94691.13;5041916;28;20049;-69
2022/04/17 00:29:55;;;;;;;350.60;320.42;;;;;;;18.70;31.34;94685.72;5041515;28;20048;-69
2022/04/17 00:32:20;;;;;;;345.38;315.70;;;;;;;18.69;31.09;94674.13;5040528;28;20036;-69
2022/04/17 00:34:46;;;;;;;341.40;312.70;;;;;;;18.69;31.19;94671.41;5039440;28;20110;-69
2022/04/17 00:37:11;;;;;;;350.10;320.40;;;;;;;18.68;31.18;94669.91;5038934;28;20503;-69
2022/04/17 00:39:39;;;;;;;351.02;321.08;;;;;;;18.68;31.33;94667.19;5041550;28;20045;-69
2022/04/17 00:42:07;;;;;;;351.67;320.90;;;;;;;18.67;31.40;94664.91;5042059;28;20048;-69
2022/04/17 00:44:34;;;;;;;350.65;321.13;;;;;;;18.67;31.40;94662.22;5025947;28;20130;-69
2022/04/17 00:47:00;;;;;;;342.42;313.73;;;;;;;18.65;31.13;94659.94;5043394;28;20193;-69
2022/04/17 00:49:26;;;;;;;347.65;318.10;;;;;;;18.65;31.35;94659.19;5044398;28;20072;-69
2022/04/17 00:51:52;;;;;;;350.05;320.08;;;;;;;18.62;31.08;94658.13;5045431;28;20489;-69
2022/04/17 00:54:19;;;;;;;340.15;312.13;;;;;;;18.64;31.28;94658.44;5057760;28;20058;-69
2022/04/17 00:56:48;;;;;;;326.58;298.40;;;;;;;18.65;31.04;94659.19;5057661;28;20036;-69
2022/04/17 00:59:15;;;;;;;339.98;310.67;;;;;;;18.65;31.17;94656.47;5054363;28;20056;-69
2022/04/17 01:01:40;;;;;;;355.17;325.35;;;;;;;18.64;31.20;94649.53;5034921;28;20053;-69
2022/04/17 01:04:07;;;;;;;334.98;307.38;;;;;;;18.63;31.16;94648.78;5047444;28;20062;-69
2022/04/17 01:06:33;;;;;;;354.15;324.50;;;;;;;18.62;31.17;94646.53;5044928;28;20044;-69
2022/04/17 01:09:00;;;;;;;342.45;312.70;;;;;;;18.62;31.11;94647.28;5041374;28;20055;-69
2022/04/17 01:11:26;;;;;;;330.08;302.45;;;;;;;18.61;31.09;94647.72;5050176;28;20416;-69
2022/04/17 01:13:53;;;;;;;338.00;310.00;;;;;;;18.60;31.16;94657.00;5056620;28;20041;-69
2022/04/17 01:16:23;;;;;;;330.40;303.10;;;;;;;18.57;31.07;94655.94;5057584;28;20052;-69
2022/04/17 01:19:00;;;;;;;334.02;306.17;;;;;;;18.58;31.13;94654.00;5038691;28;20063;-69
2022/04/17 01:21:33;;;;;;;334.70;305.95;;;;;;;18.56;31.08;94649.00;5044342;28;20041;-69
2022/04/17 01:26:56;;;;;;;342.65;312.55;;;;;;;18.54;31.11;94635.16;5037552;28;20102;-69
2022/04/17 01:29:34;;;;;;;345.48;316.13;;;;;;;18.56;31.30;94637.44;5036650;28;20489;-69
2022/04/17 01:32:01;;;;;;;326.10;298.27;;;;;;;18.54;31.17;94629.75;5031637;28;20048;-69
2022/04/17 01:34:27;;;;;;;339.15;310.23;;;;;;;18.55;31.06;94633.97;5027725;28;20193;-69
2022/04/17 01:36:54;;;;;;;340.45;311.08;;;;;;;18.55;31.08;94635.91;5040506;28;20070;-69
2022/04/17 01:39:19;;;;;;;338.35;309.30;;;;;;;18.54;31.27;94635.16;5036389;28;21063;-69
2022/04/17 01:41:47;;;;;;;338.48;309.13;;;;;;;18.54;31.20;94629.75;5036663;28;20106;-69
2022/04/17 01:44:12;;;;;;;351.63;320.60;;;;;;;18.53;31.22;94627.47;5021140;28;20036;-69
2022/04/17 01:46:38;;;;;;;340.73;311.38;;;;;;;18.53;31.15;94636.34;5038117;28;20040;-69
2022/04/17 01:49:04;;;;;;;351.88;321.88;;;;;;;18.52;31.24;94628.66;5035112;28;20057;-69
2022/04/17 01:51:35;;;;;;;336.23;307.75;;;;;;;18.52;31.21;94629.44;5016519;28;20159;-69
2022/04/17 01:54:02;;;;;;;338.55;310.25;;;;;;;18.52;31.12;94632.13;5047782;28;20052;-69
2022/04/17 01:56:28;;;;;;;337.38;308.35;;;;;;;18.53;31.20;94622.81;5041961;28;20500;-69
2022/04/17 01:58:54;;;;;;;342.92;313.10;;;;;;;18.52;31.16;94625.97;5038922;28;20052;-69
2022/04/17 02:01:19;;;;;;;357.52;326.98;;;;;;;18.53;31.24;94619.34;5038263;28;20053;-69
2022/04/17 02:03:45;;;;;;;347.67;318.30;;;;;;;18.53;31.30;94622.81;5036297;28;21325;-69
2022/04/17 02:06:10;;;;;;;331.27;303.30;;;;;;;18.53;31.21;94616.63;5034316;28;20114;-69
2022/04/17 02:08:36;;;;;;;327.33;299.98;;;;;;;18.53;31.09;94619.34;5049831;28;20072;-69
2022/04/17 02:11:04;;;;;;;337.80;309.05;;;;;;;18.53;31.15;94616.63;5052655;28;20143;-69
2022/04/17 02:13:30;;;;;;;337.83;309.90;;;;;;;18.51;31.16;94616.31;5047868;28;20084;-69
2022/04/17 02:15:55;;;;;;;331.90;304.15;;;;;;;18.51;31.00;94625.19;5048673;28;20098;-69
2022/04/17 02:18:21;;;;;;;357.63;326.90;;;;;;;18.49;31.38;94616.00;5043818;28;20044;-69
2022/04/17 02:20:47;;;;;;;329.35;302.02;;;;;;;18.50;31.03;94612.09;5043804;28;20052;-69
2022/04/17 02:23:14;;;;;;;352.48;322.00;;;;;;;18.47;31.17;94608.31;5039235;28;20421;-70
2022/04/17 02:25:40;;;;;;;336.25;307.33;;;;;;;18.49;31.26;94616.75;5039310;28;20092;-69
2022/04/17 02:28:06;;;;;;;363.83;332.73;;;;;;;18.48;31.00;94609.09;5031983;28;20045;-69
2022/04/17 02:30:32;;;;;;;332.73;304.40;;;;;;;18.49;31.26;94613.31;5040666;28;20071;-69
2022/04/17 02:32:58;;;;;;;339.10;309.42;;;;;;;18.48;31.15;94607.13;5036727;28;20055;-69
2022/04/17 02:35:24;;;;;;;334.88;305.85;;;;;;;18.48;30.96;94598.25;5034745;28;20053;-70
2022/04/17 02:37:49;;;;;;;353.70;322.58;;;;;;;18.48;31.13;94598.25;5034711;28;20080;-69
2022/04/17 02:40:15;;;;;;;341.92;312.60;;;;;;;18.47;31.03;94602.16;5037892;28;20123;-70
2022/04/17 02:42:40;;;;;;;352.88;322.73;;;;;;;18.46;31.18;94606.81;5041600;28;20044;-69
2022/04/17 02:45:06;;;;;;;337.23;308.48;;;;;;;18.45;31.18;94594.47;5042981;28;20041;-69
2022/04/17 02:47:45;;;;;;;340.60;311.38;;;;;;;18.45;31.16;94605.31;5038619;28;20178;-69
2022/04/17 02:50:12;;;;;;;333.25;304.30;;;;;;;18.44;31.04;94603.78;5044458;28;20044;-69
2022/04/17 02:52:38;;;;;;;337.83;309.00;;;;;;;18.43;31.16;94594.91;5042306;28;20067;-69
2022/04/17 02:55:07;;;;;;;340.17;311.02;;;;;;;18.44;30.95;94595.66;5040290;28;20052;-70
2022/04/17 02:57:37;;;;;;;336.98;308.63;;;;;;;18.44;31.08;94590.25;5041218;28;20085;-69
2022/04/17 03:00:05;;;;;;;354.02;324.08;;;;;;;18.44;31.05;94588.28;5042946;28;21849;-68
2022/04/17 03:07:59;;;;;;;346.15;315.70;;;;;;;18.44;30.97;94595.66;5041427;28;20036;-69
2022/04/17 03:10:25;;;;;;;340.92;310.63;;;;;;;18.44;31.02;94595.66;5041418;28;20160;-69
2022/04/17 03:12:51;;;;;;;344.15;314.52;;;;;;;18.44;31.09;94590.25;5039400;28;23091;-69
2022/04/17 03:15:17;;;;;;;341.30;311.73;;;;;;;18.43;31.23;94584.06;5034411;28;20069;-69
2022/04/17 03:17:42;;;;;;;360.02;329.02;;;;;;;18.44;31.10;94585.59;5038241;28;20111;-69
2022/04/17 03:20:09;;;;;;;343.90;313.85;;;;;;;18.44;31.05;94588.28;5033856;28;20641;-69
2022/04/17 03:22:34;;;;;;;336.48;307.45;;;;;;;18.44;31.09;94584.84;5034013;28;20390;-69
2022/04/17 03:25:00;;;;;;;345.83;315.85;;;;;;;18.44;31.16;94588.28;5038400;28;20040;-69
2022/04/17 03:27:28;;;;;;;357.17;326.63;;;;;;;18.43;31.04;94581.38;5034172;28;20535;-69
2022/04/17 03:29:57;;;;;;;344.48;315.40;;;;;;;18.43;30.91;94584.06;5037416;28;20072;-69
2022/04/17 03:32:23;;;;;;;334.23;304.90;;;;;;;18.43;31.09;94575.94;5045150;28;20818;-69
2022/04/17 03:34:48;;;;;;;334.42;305.88;;;;;;;18.43;31.17;94578.66;5040830;28;20053;-69
2022/04/17 03:37:15;;;;;;;344.90;315.17;;;;;;;18.43;31.12;94573.25;5036878;28;20044;-69
2022/04/17 03:39:41;;;;;;;331.77;303.10;;;;;;;18.42;30.68;94574.44;5037378;28;20105;-69
2022/04/17 03:42:07;;;;;;;341.45;312.00;;;;;;;18.41;31.16;94569.47;5039676;28;20071;-69
2022/04/17 03:44:35;;;;;;;338.73;309.77;;;;;;;18.40;31.07;94574.13;5022574;28;20068;-69
2022/04/17 03:47:01;;;;;;;331.80;303.35;;;;;;;18.41;31.05;94569.47;5038544;28;20075;-69
2022/04/17 03:49:29;;;;;;;355.45;324.38;;;;;;;18.39;31.04;94561.78;5037118;28;20044;-69
2022/04/17 03:51:55;;;;;;;343.98;314.70;;;;;;;18.40;31.00;94565.25;5040209;28;20048;-69
2022/04/17 03:54:21;;;;;;;337.98;308.65;;;;;;;18.41;31.17;94564.06;5021576;28;20457;-69
2022/04/17 03:56:47;;;;;;;336.23;307.40;;;;;;;18.41;31.14;94564.06;5041120;28;20117;-69
2022/04/17 03:59:13;;;;;;;341.65;312.38;;;;;;;18.43;31.40;94569.78;5038895;28;20068;-69
2022/04/17 04:01:40;;;;;;;354.85;324.08;;;;;;;18.43;31.06;94565.13;5025074;28;20049;-69
2022/04/17 04:04:08;;;;;;;343.77;313.90;;;;;;;18.43;30.92;94562.41;5023631;28;20514;-69
2022/04/17 04:06:34;;;;;;;339.20;309.70;;;;;;;18.45;31.27;94567.38;5044312;28;20051;-69
2022/04/17 04:09:00;;;;;;;342.02;312.50;;;;;;;18.47;31.08;94575.06;5042695;28;20114;-69
2022/04/17 04:11:26;;;;;;;350.35;320.40;;;;;;;18.48;31.33;94573.88;5042365;28;20057;-69
2022/04/17 04:13:53;;;;;;;360.60;329.55;;;;;;;18.48;31.15;94569.22;5037361;28;20048;-69
2022/04/17 04:16:19;;;;;;;338.55;309.33;;;;;;;18.48;31.23;94566.50;5041428;28;20827;-69
2022/04/17 04:18:44;;;;;;;328.25;300.60;;;;;;;18.49;31.09;94565.31;5040448;28;20053;-69
2022/04/17 04:21:10;;;;;;;346.05;316.33;;;;;;;18.52;31.02;94569.09;5038965;28;20151;-69
2022/04/17 04:23:36;;;;;;;355.92;325.48;;;;;;;18.52;31.03;94563.66;5041037;28;20044;-69
2022/04/17 04:26:03;;;;;;;355.35;325.80;;;;;;;18.53;31.12;94560.50;5040318;28;20504;-69
2022/04/17 04:28:38;;;;;;;349.50;320.92;;;;;;;18.54;30.99;94562.03;5049794;28;20036;-69
2022/04/17 04:31:12;;;;;;;364.20;333.40;;;;;;;18.57;31.05;94541.41;5040884;28;20051;-69
2022/04/17 04:33:39;;;;;;;343.45;314.45;;;;;;;18.59;31.02;94550.63;5043195;28;20801;-69
2022/04/17 04:36:07;;;;;;;353.38;323.42;;;;;;;18.60;31.12;94549.44;5040842;28;20078;-69
2022/04/17 04:38:33;;;;;;;351.08;321.08;;;;;;;18.60;31.05;94543.25;5039291;28;20079;-69
2022/04/17 04:41:01;;;;;;;357.00;327.42;;;;;;;18.62;30.78;94543.59;5043827;28;20052;-69
2022/04/17 04:43:27;;;;;;;359.30;328.90;;;;;;;18.63;30.77;94551.25;5035945;28;20036;-69
2022/04/17 04:46:08;;;;;;;349.50;319.83;;;;;;;18.65;30.84;94546.16;5043739;28;20055;-69
2022/04/17 04:51:26;;;;;;;332.48;305.08;;;;;;;18.68;30.92;94558.81;5050215;28;20558;-69
2022/04/17 04:53:53;;;;;;;344.27;316.33;;;;;;;18.68;30.86;94561.53;5057494;28;20049;-69
2022/04/17 04:56:19;;;;;;;340.17;312.60;;;;;;;18.71;30.92;94555.22;5063607;28;20117;-69
2022/04/17 04:58:45;;;;;;;344.50;316.85;;;;;;;18.74;30.78;94564.41;5065451;28;20052;-69
2022/04/17 05:01:12;;;;;;;352.55;323.67;;;;;;;18.77;30.93;94568.94;5054810;28;20052;-69
2022/04/17 05:03:39;;;;;;;377.80;346.50;;;;;;;18.79;30.64;94568.50;5038428;28;20053;-69
2022/04/17 05:06:04;;;;;;;354.80;325.42;;;;;;;18.80;30.71;94570.75;5045178;28;20684;-69
2022/04/17 05:08:30;;;;;;;343.30;315.55;;;;;;;18.81;30.65;94564.16;5048562;28;20085;-69
2022/04/17 05:10:56;;;;;;;343.33;315.10;;;;;;;18.82;30.71;94557.53;5052858;28;20045;-69
2022/04/17 05:13:22;;;;;;;357.55;328.42;;;;;;;18.82;30.59;94552.09;5049681;28;20126;-69
2022/04/17 05:15:47;;;;;;;359.38;331.02;;;;;;;18.83;30.57;94548.19;5050077;28;20048;-70
2022/04/17 05:18:13;;;;;;;357.33;329.25;;;;;;;18.86;30.95;94546.53;5042226;28;20096;-69
2022/04/17 05:20:40;;;;;;;370.08;339.92;;;;;;;18.85;30.65;94548.47;5050732;28;20032;-69
2022/04/17 05:23:22;;;;;;;356.55;328.20;;;;;;;18.88;30.62;94554.97;5055417;28;20456;-70
2022/04/17 05:25:51;;;;;;;349.63;321.35;;;;;;;18.88;30.53;94555.72;5054533;28;20052;-69
2022/04/17 05:28:17;;;;;;;359.08;330.02;;;;;;;18.88;30.63;94557.66;5050712;28;20398;-69
2022/04/17 05:30:44;;;;;;;365.50;336.02;;;;;;;18.88;30.36;94553.00;5052343;28;20060;-69
2022/04/17 05:33:10;;;;;;;337.45;310.05;;;;;;;18.90;30.65;94563.41;5058561;28;20465;-69
2022/04/17 05:35:35;;;;;;;357.13;328.42;;;;;;;18.88;30.51;94558.44;5054514;28;20044;-69
2022/04/17 05:38:01;;;;;;;354.98;325.58;;;;;;;18.90;30.23;94566.09;5053424;28;20440;-67
2022/04/17 05:40:28;;;;;;;348.02;319.95;;;;;;;18.91;30.42;94559.50;5055638;28;20040;-69
2022/04/17 05:42:56;;;;;;;345.67;317.25;;;;;;;18.91;30.44;94557.53;5059080;28;20205;-69
2022/04/17 05:45:22;;;;;;;353.55;325.23;;;;;;;18.92;30.53;94559.03;5053491;28;20041;-69
2022/04/17 05:47:47;;;;;;;355.80;326.58;;;;;;;18.93;30.56;94555.13;5051769;28;20489;-70
2022/04/17 05:50:13;;;;;;;353.10;324.08;;;;;;;18.95;30.55;94547.31;5055293;28;20041;-69
2022/04/17 05:52:41;;;;;;;346.45;318.65;;;;;;;18.96;30.50;94556.19;5052549;28;22142;-68
2022/04/17 05:55:08;;;;;;;363.27;334.25;;;;;;;18.96;30.38;94551.53;5050126;28;20052;-68
2022/04/17 05:57:33;;;;;;;351.27;322.92;;;;;;;18.97;30.42;94547.63;5051147;28;20052;-68
2022/04/17 05:59:59;;;;;;;352.02;323.85;;;;;;;18.96;30.33;94546.13;5055864;28;20056;-68
2022/04/17 06:02:27;;;;;;;347.77;319.38;;;;;;;17.97;30.44;94549.78;5055896;28;20126;-69
2022/04/17 06:04:53;;;;;;;346.55;318.52;;;;;;;18.54;29.49;94537.66;5057331;28;20045;-69
2022/04/17 06:07:26;;;;;;;348.13;320.52;;;;;;;18.71;29.50;94544.38;5054586;28;20063;-68
2022/04/17 06:09:51;;;;;;;347.50;319.55;;;;;;;18.80;29.30;94551.03;5055771;28;20218;-68
2022/04/17 06:12:17;;;;;;;355.17;327.33;;;;;;;18.82;29.45;94545.94;5061527;28;20112;-70
2022/04/17 06:14:43;;;;;;;359.70;330.88;;;;;;;18.81;29.36;94547.88;5053673;28;20719;-68
2022/04/17 06:17:10;;;;;;;346.48;318.77;;;;;;;18.79;29.55;94555.72;5058238;28;20052;-66
2022/04/17 06:19:36;;;;;;;353.27;324.92;;;;;;;18.78;29.43;94553.44;5039122;28;20056;-70
2022/04/17 06:22:02;;;;;;;349.25;320.70;;;;;;;18.75;29.66;94557.78;5055851;28;20062;-71
2022/04/17 06:24:28;;;;;;;348.55;321.00;;;;;;;18.74;29.70;94550.88;5059242;28;20086;-70
2022/04/17 06:26:53;;;;;;;351.20;322.70;;;;;;;18.69;29.46;94546.78;5058461;28;20159;-71
2022/04/17 06:29:19;;;;;;;345.33;317.70;;;;;;;18.69;29.73;94554.16;5053289;28;20787;-70
2022/04/17 06:31:45;;;;;;;347.95;320.08;;;;;;;18.69;29.74;94554.91;5056080;28;21786;-74
2022/04/17 06:34:12;;;;;;;346.90;318.50;;;;;;;18.67;29.48;94554.59;5057434;28;20052;-71
2022/04/17 06:36:39;;;;;;;344.52;316.92;;;;;;;18.66;29.50;94544.97;5049751;28;20166;-73
2022/04/17 06:39:08;;;;;;;354.52;325.90;;;;;;;18.65;29.60;94551.56;5053299;28;21827;-71
2022/04/17 06:41:33;;;;;;;337.65;310.63;;;;;;;18.65;29.52;94540.75;5038375;28;20041;-73
2022/04/17 06:44:03;;;;;;;358.95;329.98;;;;;;;18.65;29.52;94556.25;5055047;28;20059;-71
2022/04/17 06:46:28;;;;;;;338.98;311.30;;;;;;;18.61;29.64;94555.63;5056748;28;20048;-71
2022/04/17 06:48:54;;;;;;;343.08;315.27;;;;;;;18.58;29.32;94549.09;5057380;28;20405;-71
2022/04/17 06:51:23;;;;;;;341.42;313.95;;;;;;;18.62;29.50;94551.72;5055902;28;20501;-73
2022/04/17 06:54:02;;;;;;;336.48;308.75;;;;;;;18.61;29.51;94553.66;5055726;28;20056;-72
2022/04/17 06:56:32;;;;;;;340.33;311.90;;;;;;;18.61;29.70;94555.63;5053806;28;20037;-69
2022/04/17 06:58:58;;;;;;;345.52;317.60;;;;;;;18.59;29.38;94549.84;5055417;28;20493;-70
2022/04/17 07:01:24;;;;;;;356.98;328.08;;;;;;;18.59;29.46;94547.16;5052360;28;20051;-77
2022/04/17 07:03:49;;;;;;;389.20;356.75;;;;;;;18.58;29.50;94551.81;5041457;28;20036;-70
2022/04/17 07:06:15;;;;;;;354.65;325.13;;;;;;;18.57;29.26;94546.84;5038130;28;20178;-69
2022/04/17 07:08:41;;;;;;;380.88;349.17;;;;;;;18.60;29.53;94551.38;5039013;28;20049;-69
2022/04/17 07:11:07;;;;;;;368.83;338.45;;;;;;;18.52;29.09;94548.16;5042195;28;20048;-69
2022/04/17 07:13:32;;;;;;;359.02;328.73;;;;;;;18.50;29.35;94564.09;5039783;28;20059;-70
2022/04/17 07:15:58;;;;;;;374.23;343.25;;;;;;;18.55;29.27;94554.66;5039851;28;20551;-70
2022/04/17 07:18:24;;;;;;;356.30;326.27;;;;;;;18.54;29.30;94558.56;5036098;28;20145;-70
2022/04/17 07:20:50;;;;;;;365.90;335.63;;;;;;;18.58;29.21;94548.34;5020977;28;20279;-69
2022/04/17 07:23:15;;;;;;;382.40;349.60;;;;;;;18.53;29.18;94540.78;5016593;28;20060;-70
2022/04/17 07:25:41;;;;;;;362.05;331.40;;;;;;;18.57;29.17;94546.84;5039691;28;20174;-70
2022/04/17 07:28:14;;;;;;;365.15;333.80;;;;;;;18.52;29.16;94550.88;5035896;28;20525;-70
2022/04/17 07:30:40;;;;;;;366.80;335.90;;;;;;;18.52;28.74;94544.69;5038283;28;20055;-69
2022/04/17 07:33:05;;;;;;;360.50;330.50;;;;;;;18.50;28.77;94534.31;5037612;28;20072;-69
2022/04/17 07:35:31;;;;;;;356.98;328.40;;;;;;;18.56;29.09;94535.25;5041445;28;20056;-69
2022/04/17 07:38:00;;;;;;;374.25;342.02;;;;;;;18.55;28.70;94522.91;5044015;28;20034;-70
2022/04/17 07:40:28;;;;;;;361.75;332.20;;;;;;;18.58;29.02;94532.09;5025394;28;20059;-70
2022/04/17 07:42:56;;;;;;;353.20;323.65;;;;;;;18.57;28.96;94528.63;5043682;28;20052;-69
2022/04/17 07:45:23;;;;;;;362.80;331.90;;;;;;;18.48;28.75;94533.25;5042057;28;20048;-69
2022/04/17 07:47:52;;;;;;;385.70;353.10;;;;;;;18.52;28.91;94531.91;5038801;28;20048;-65
2022/04/17 07:50:24;;;;;;;372.20;340.83;;;;;;;18.56;28.75;94539.91;5040361;28;20055;-69
2022/04/17 07:52:51;;;;;;;367.77;336.67;;;;;;;18.55;28.91;94536.44;5034238;28;20048;-67
2022/04/17 07:55:17;;;;;;;367.65;336.17;;;;;;;18.49;28.77;94527.38;5031494;28;20056;-68
2022/04/17 08:00:28;;;;;;;366.00;334.65;;;;;;;18.53;28.71;94530.72;5041523;28;20048;-67
2022/04/17 08:03:09;;;;;;;352.63;323.85;;;;;;;18.55;28.94;94533.75;5037938;28;20059;-68
2022/04/17 08:05:38;;;;;;;;;;;;;;;18.51;28.58;94538.53;5039927;28;20041;-68
2022/04/17 08:08:11;;;;;;;364.17;332.60;;;;;;;18.53;28.50;94532.66;5042814;28;19935;-67
2022/04/17 08:10:37;;;;;;;351.88;320.90;;;;;;;18.47;28.55;94529.78;5039367;28;20512;-67
2022/04/17 08:13:03;;;;;;;401.02;369.58;;;;;;;18.49;28.52;94540.19;5042229;28;20096;-67
2022/04/17 08:15:29;;;;;;;353.52;323.45;;;;;;;18.43;28.30;94531.88;5023525;28;20040;-67
2022/04/17 08:17:54;;;;;;;376.80;344.30;;;;;;;18.32;28.42;94534.22;5037802;28;20043;-67
2022/04/17 08:20:20;;;;;;;362.08;330.80;;;;;;;18.38;28.17;94538.59;5022781;28;21114;-67
2022/04/17 08:22:46;;;;;;;354.10;324.23;;;;;;;18.37;28.11;94528.22;5043595;28;20040;-68
2022/04/17 08:25:12;;;;;;;375.17;343.98;;;;;;;18.39;28.17;94539.38;5044767;28;20102;-68
2022/04/17 08:27:48;;;;;;;366.70;335.58;;;;;;;18.37;27.66;94534.41;5042266;28;20044;-68
2022/04/17 08:30:22;;;;;;;357.92;326.92;;;;;;;18.37;28.04;94520.84;5042381;28;20560;-68
2022/04/17 08:32:48;;;;;;;364.17;333.90;;;;;;;18.39;27.92;94523.13;5042552;28;20547;-68
2022/04/17 08:35:14;;;;;;;369.50;338.27;;;;;;;18.46;27.87;94520.16;5040295;28;20044;-68
2022/04/17 08:37:40;;;;;;;370.15;338.10;;;;;;;18.52;28.03;94506.78;5038450;28;20059;-68
2022/04/17 08:40:06;;;;;;;355.45;326.23;;;;;;;18.53;28.08;94509.06;5041067;28;20417;-68
2022/04/17 08:42:32;;;;;;;355.42;326.23;;;;;;;18.43;27.62;94507.50;5042015;28;21673;-68
2022/04/17 08:44:58;;;;;;;371.52;339.83;;;;;;;18.38;27.87;94503.41;5041895;28;20048;-69
2022/04/17 08:47:25;;;;;;;371.45;340.45;;;;;;;18.37;27.41;94509.28;5040721;28;21199;-68
2022/04/17 08:49:54;;;;;;;365.15;334.23;;;;;;;18.25;27.62;94508.16;5040952;28;20420;-68
2022/04/17 08:52:21;;;;;;;373.65;342.17;;;;;;;18.29;27.89;94508.03;5037917;28;20787;-69
2022/04/17 08:54:46;;;;;;;362.40;331.40;;;;;;;18.32;27.75;94516.00;5039904;28;20052;-68
2022/04/17 08:57:12;;;;;;;362.20;331.52;;;;;;;18.27;27.65;94507.72;5043026;28;20109;-68
2022/04/17 08:59:38;;;;;;;367.73;337.15;;;;;;;18.38;27.60;94502.66;5043253;28;20036;-69
2022/04/17 09:02:10;;;;;;;358.70;328.25;;;;;;;18.42;27.84;94498.63;5041181;28;20044;-68
2022/04/17 09:04:38;;;;;;;359.08;329.08;;;;;;;18.43;27.73;94502.06;5037524;28;20059;-69
2022/04/17 09:07:13;;;;;;;371.67;340.23;;;;;;;18.43;27.67;94502.06;5039048;28;20052;-68
2022/04/17 09:09:49;;;;;;;363.23;332.40;;;;;;;18.38;27.51;94500.69;5041244;28;20052;-69
2022/04/17 09:12:20;;;;;;;350.60;320.40;;;;;;;18.38;27.83;94492.56;5039568;28;20047;-69
2022/04/17 09:14:46;;;;;;;365.60;334.85;;;;;;;18.34;27.69;94500.06;5039164;28;21098;-69
2022/04/17 09:17:11;;;;;;;368.15;337.27;;;;;;;18.36;27.82;94491.50;5040773;28;20072;-69
2022/04/17 09:19:37;;;;;;;369.92;338.25;;;;;;;18.29;27.54;94481.69;5038472;28;20444;-69
2022/04/17 09:22:05;;;;;;;340.42;311.85;;;;;;;18.34;27.51;94480.38;5040599;28;20631;-68
2022/04/17 09:24:35;;;;;;;366.90;335.88;;;;;;;18.27;27.20;94477.94;5040015;28;20051;-68
2022/04/17 09:27:01;;;;;;;358.90;328.17;;;;;;;18.29;27.66;94473.56;5042346;28;20067;-69
2022/04/17 09:29:29;;;;;;;373.90;342.08;;;;;;;18.35;27.57;94479.94;5038472;28;20497;-69
2022/04/17 09:32:00;;;;;;;366.75;335.38;;;;;;;18.34;27.43;94481.13;5039255;28;20060;-69
2022/04/17 09:34:28;;;;;;;351.70;323.23;;;;;;;18.36;27.45;94476.03;5041123;28;20044;-69
2022/04/17 09:36:59;;;;;;;362.58;331.58;;;;;;;18.36;27.59;94475.25;5041924;28;20039;-68
2022/04/17 09:39:33;;;;;;;349.77;320.00;;;;;;;18.36;27.79;94473.31;5038836;28;22065;-69
2022/04/17 09:42:02;;;;;;;354.85;324.77;;;;;;;18.47;27.71;94477.56;5042508;28;20469;-69
2022/04/17 09:44:49;;;;;;;362.60;331.88;;;;;;;18.52;27.92;94471.56;5041657;28;20044;-68
2022/04/17 09:47:54;;;;;;;372.58;341.05;;;;;;;18.53;27.99;94468.41;5040562;28;20040;-68
2022/04/17 09:50:30;;;;;;;354.77;324.13;;;;;;;18.56;27.85;94475.66;5043432;28;20052;-68
2022/04/17 09:52:56;;;;;;;355.02;325.23;;;;;;;18.54;28.24;94467.22;5042745;28;20472;-69
2022/04/17 09:55:28;;;;;;;362.50;331.88;;;;;;;18.46;28.09;94452.44;5040405;28;20698;-69
2022/04/17 09:57:58;;;;;;;371.40;339.70;;;;;;;18.55;28.13;94465.25;5039582;28;20413;-69
2022/04/17 10:00:25;;;;;;;372.50;340.52;;;;;;;18.46;27.91;94446.28;5035951;28;20036;-68
2022/04/17 10:02:50;;;;;;;345.90;316.83;;;;;;;18.44;27.67;94455.59;5038792;28;20051;-68
2022/04/17 10:05:20;;;;;;;365.83;334.92;;;;;;;18.43;27.91;94437.84;5039625;28;20040;-69
2022/04/17 10:07:48;;;;;;;356.75;327.40;;;;;;;18.39;27.68;94439.16;5045123;28;20048;-70
2022/04/17 10:10:15;;;;;;;346.33;317.73;;;;;;;18.36;27.67;94437.34;5053279;28;20048;-69
2022/04/17 10:12:45;;;;;;;343.10;314.88;;;;;;;18.42;28.19;94432.88;5055699;28;20052;-70
2022/04/17 10:15:12;;;;;;;348.33;320.48;;;;;;;18.45;27.93;94429.28;5056012;28;20055;-70
2022/04/17 10:17:39;;;;;;;349.15;320.70;;;;;;;18.53;28.06;94429.75;5052794;28;20069;-70
2022/04/17 10:20:11;;;;;;;360.58;331.27;;;;;;;18.51;27.79;94421.31;5045599;28;20121;-70
2022/04/17 10:22:38;;;;;;;357.05;327.10;;;;;;;18.35;27.65;94416.91;5029643;28;20048;-70
2022/04/17 10:25:06;;;;;;;357.25;327.20;;;;;;;18.40;27.68;94408.94;5039247;28;20872;-69
2022/04/17 10:27:40;;;;;;;355.65;326.13;;;;;;;18.39;27.74;94399.31;5037043;28;20048;-70
2022/04/17 10:30:10;;;;;;;361.17;331.50;;;;;;;18.44;27.85;94395.25;5036942;28;20062;-70
2022/04/17 10:33:03;;;;;;;364.42;334.05;;;;;;;18.50;27.84;94379.19;5030783;28;21754;-70
2022/04/17 10:36:06;;;;;;;350.92;321.40;;;;;;;18.40;27.64;94384.56;5030978;28;20470;-70
2022/04/17 10:38:44;;;;;;;351.15;322.27;;;;;;;18.43;27.97;94391.81;5043617;28;20445;-70
2022/04/17 10:41:12;;;;;;;351.02;322.40;;;;;;;18.44;27.61;94381.72;5030628;28;20056;-69
2022/04/17 10:43:47;;;;;;;355.17;325.02;;;;;;;18.44;28.03;94370.88;5035102;28;20492;-70
2022/04/17 10:46:17;;;;;;;345.67;317.85;;;;;;;18.48;27.79;94368.03;5048673;28;20052;-69
2022/04/17 10:48:47;;;;;;;355.75;327.35;;;;;;;18.55;27.88;94365.81;5053067;28;20082;-69
2022/04/17 10:51:24;;;;;;;333.63;305.87;;;;;;;18.52;27.71;94372.13;5037442;28;20080;-70
2022/04/17 10:54:04;;;;;;;334.13;306.75;;;;;;;18.54;27.86;94368.97;5054102;28;20151;-70
2022/04/17 10:56:38;;;;;;;343.00;315.35;;;;;;;18.56;28.07;94364.59;5050310;28;20044;-70
2022/04/17 10:59:15;;;;;;;337.55;309.85;;;;;;;18.65;27.98;94363.91;5052495;28;20045;-70
2022/04/17 11:01:43;;;;;;;349.10;320.20;;;;;;;18.55;27.97;94352.25;5050468;28;20040;-70
2022/04/17 11:04:19;;;;;;;356.35;326.83;;;;;;;18.56;28.06;94347.59;5052275;28;20097;-70
2022/04/17 11:07:05;;;;;;;359.33;329.88;;;;;;;18.47;27.70;94353.00;5051400;28;20048;-70
2022/04/17 11:09:36;;;;;;;342.95;314.73;;;;;;;18.39;27.83;94347.84;5048761;28;20114;-70
2022/04/17 11:12:06;;;;;;;347.98;318.40;;;;;;;18.39;27.57;94341.69;5042969;28;20048;-70
2022/04/17 11:14:32;;;;;;;356.23;326.10;;;;;;;18.50;27.84;94338.56;5038495;28;20195;-67
2022/04/17 11:17:00;;;;;;;355.58;325.75;;;;;;;18.48;27.73;94339.00;5038814;28;20170;-68
2022/04/17 11:19:29;;;;;;;367.23;336.83;;;;;;;18.43;27.69;94337.63;5043053;28;20047;-71